Hua Heng 167 — BIAK3 — position and weather

sailwx.info

Track history (hours):
 
Tides and Currents Weather Stations Pressure Air Temp Water Temp Dewpoint Dewpoint Depression Visibility Wind Speed Wind Dir Waves Ship Positions

Hua Heng 167

Last reported at 2015-Jul-18 23:11 UTC. Time now 2015-Aug-03 04:29 UTC.
Position N 31°22' E 032°19'.
Warning: this ship's position is 15 days out of date.

Length 189 m; draft 12.5 m.

Type: Cargo ship. MMSI: 413376470.

Date/timePositionNaut miles runAvg speedWind from/ knotsBaromVisibWave heightAir tempDewpointWater temp
2015-Jul-18 23:11N 31°22' E 032°19'0 0.1
2015-Jul-18 22:32N 31°22' E 032°19'0 0.0
2015-Jul-18 21:33N 31°22' E 032°19'0 0.0
2015-Jul-18 20:33N 31°22' E 032°19'0 0.0
2015-Jul-18 19:13N 31°22' E 032°19'0 0.0
2015-Jul-18 18:32N 31°22' E 032°19'1 0.8
2015-Jul-18 17:33N 31°23' E 032°19'3210.5
2015-Jul-18 14:32N 31°47' E 031°54'1813.9
2015-Jul-18 13:14N 31°54' E 031°34'1513.9
2015-Jul-18 12:09N 31°60' E 031°18'813.6
2015-Jul-18 11:34N 32°03' E 031°09'1413.7
2015-Jul-18 10:34N 32°07' E 030°54'1413.7
2015-Jul-18 09:34N 32°12' E 030°39'1413.9
2015-Jul-18 08:31N 32°16' E 030°23'1313.6
2015-Jul-18 07:33N 32°20' E 030°08'1313.4
2015-Jul-18 06:33N 32°24' E 029°53'1313.3
2015-Jul-18 05:34N 32°28' E 029°38'5613.2
2015-Jul-18 01:17N 32°45' E 028°34'63813.3
2015-Jul-16 01:09N 35°55' E 016°17'813.0
2015-Jul-16 00:33N 35°57' E 016°07'1312.8
2015-Jul-15 23:32N 36°01' E 015°52'1312.9
2015-Jul-15 22:31N 36°05' E 015°37'1313.0
2015-Jul-15 21:33N 36°09' E 015°22'1313.0
2015-Jul-15 20:33N 36°13' E 015°07'1313.1
2015-Jul-15 19:32N 36°17' E 014°51'1313.2
2015-Jul-15 18:34N 36°21' E 014°36'1313.1
2015-Jul-15 17:33N 36°25' E 014°20'1313.2
2015-Jul-15 16:33N 36°29' E 014°04'1313.3
2015-Jul-15 15:34N 36°33' E 013°49'1313.2
2015-Jul-15 14:34N 36°37' E 013°33'1313.2
2015-Jul-15 13:34N 36°41' E 013°17'1313.1
2015-Jul-15 12:33N 36°44' E 013°01'1313.2
2015-Jul-15 11:34N 36°49' E 012°46'1313.4
2015-Jul-15 10:34N 36°53' E 012°30'5513.1
2015-Jul-15 06:21N 37°14' E 011°26'1013.0
2015-Jul-15 05:33N 37°19' E 011°15'1812.7
2015-Jul-15 04:09N 37°27' E 010°55'32112.9
2015-Jul-14 03:16N 37°16' E 004°11'2413.1
2015-Jul-14 01:28N 37°17' E 003°41'2812.4
2015-Jul-13 23:13N 37°18' E 003°06'2512.3
2015-Jul-13 21:12N 37°12' E 002°36'6212.2
2015-Jul-13 16:04N 36°54' E 001°21'3412.5
2015-Jul-13 13:20N 36°44' E 000°40'6112.6
2015-Jul-13 08:30N 36°32' W 000°34'1212.4
2015-Jul-13 07:33N 36°30' W 000°49'1212.2
2015-Jul-13 06:32N 36°28' W 001°04'1212.4
2015-Jul-13 05:33N 36°27' W 001°19'2512.5
2015-Jul-13 03:31N 36°24' W 001°50'1212.5
2015-Jul-13 02:33N 36°22' W 002°05'1212.4
2015-Jul-13 01:34N 36°21' W 002°20'1311.9
2015-Jul-13 00:30N 36°19' W 002°36'1111.8
2015-Jul-12 23:33N 36°18' W 002°49'11813.1
2015-Jul-12 14:34N 36°01' W 005°14'9 1.7
2015-Jul-12 09:18N 36°07' W 005°22'0 0.2
2015-Jul-12 08:33N 36°08' W 005°22'1 0.1
2015-Jul-12 04:12N 36°07' W 005°22'2 3.8
2015-Jul-12 03:33N 36°05' W 005°22'9 8.9
2015-Jul-12 02:33N 35°58' W 005°29'4313.3
2015-Jul-11 23:18N 35°48' W 006°21'1012.3
2015-Jul-11 22:28N 35°39' W 006°27'2711.9
2015-Jul-11 20:12N 35°15' W 006°42'811.9
2015-Jul-11 19:32N 35°08' W 006°47'2311.5
2015-Jul-11 17:33N 34°48' W 007°00'  
Track history (hours):
 
Tides and Currents Weather Stations Pressure Air Temp Water Temp Dewpoint Dewpoint Depression Visibility Wind Speed Wind Dir Waves Ship Positions

Hua Heng 167

Last reported at 2015-Jul-18 23:11 UTC. Time now 2015-Aug-03 04:29 UTC.
Position N 31°22' E 032°19'.
Warning: this ship's position is 15 days out of date.

Length 189 m; draft 12.5 m.

Type: Cargo ship. MMSI: 413376470.

Date/timePositionNaut miles runAvg speedWind from/ knotsBaromVisibWave heightAir tempDewpointWater temp
2015-Jul-18 23:11N 31°22' E 032°19'0 0.1
2015-Jul-18 22:32N 31°22' E 032°19'0 0.0
2015-Jul-18 21:33N 31°22' E 032°19'0 0.0
2015-Jul-18 20:33N 31°22' E 032°19'0 0.0
2015-Jul-18 19:13N 31°22' E 032°19'0 0.0
2015-Jul-18 18:32N 31°22' E 032°19'1 0.8
2015-Jul-18 17:33N 31°23' E 032°19'3210.5
2015-Jul-18 14:32N 31°47' E 031°54'1813.9
2015-Jul-18 13:14N 31°54' E 031°34'1513.9
2015-Jul-18 12:09N 31°60' E 031°18'813.6
2015-Jul-18 11:34N 32°03' E 031°09'1413.7
2015-Jul-18 10:34N 32°07' E 030°54'1413.7
2015-Jul-18 09:34N 32°12' E 030°39'1413.9
2015-Jul-18 08:31N 32°16' E 030°23'1313.6
2015-Jul-18 07:33N 32°20' E 030°08'1313.4
2015-Jul-18 06:33N 32°24' E 029°53'1313.3
2015-Jul-18 05:34N 32°28' E 029°38'5613.2
2015-Jul-18 01:17N 32°45' E 028°34'63813.3
2015-Jul-16 01:09N 35°55' E 016°17'813.0
2015-Jul-16 00:33N 35°57' E 016°07'1312.8
2015-Jul-15 23:32N 36°01' E 015°52'1312.9
2015-Jul-15 22:31N 36°05' E 015°37'1313.0
2015-Jul-15 21:33N 36°09' E 015°22'1313.0
2015-Jul-15 20:33N 36°13' E 015°07'1313.1
2015-Jul-15 19:32N 36°17' E 014°51'1313.2
2015-Jul-15 18:34N 36°21' E 014°36'1313.1
2015-Jul-15 17:33N 36°25' E 014°20'1313.2
2015-Jul-15 16:33N 36°29' E 014°04'1313.3
2015-Jul-15 15:34N 36°33' E 013°49'1313.2
2015-Jul-15 14:34N 36°37' E 013°33'1313.2
2015-Jul-15 13:34N 36°41' E 013°17'1313.1
2015-Jul-15 12:33N 36°44' E 013°01'1313.2
2015-Jul-15 11:34N 36°49' E 012°46'1313.4
2015-Jul-15 10:34N 36°53' E 012°30'5513.1
2015-Jul-15 06:21N 37°14' E 011°26'1013.0
2015-Jul-15 05:33N 37°19' E 011°15'1812.7
2015-Jul-15 04:09N 37°27' E 010°55'32112.9
2015-Jul-14 03:16N 37°16' E 004°11'2413.1
2015-Jul-14 01:28N 37°17' E 003°41'2812.4
2015-Jul-13 23:13N 37°18' E 003°06'2512.3
2015-Jul-13 21:12N 37°12' E 002°36'6212.2
2015-Jul-13 16:04N 36°54' E 001°21'3412.5
2015-Jul-13 13:20N 36°44' E 000°40'6112.6
2015-Jul-13 08:30N 36°32' W 000°34'1212.4
2015-Jul-13 07:33N 36°30' W 000°49'1212.2
2015-Jul-13 06:32N 36°28' W 001°04'1212.4
2015-Jul-13 05:33N 36°27' W 001°19'2512.5
2015-Jul-13 03:31N 36°24' W 001°50'1212.5
2015-Jul-13 02:33N 36°22' W 002°05'1212.4
2015-Jul-13 01:34N 36°21' W 002°20'1311.9
2015-Jul-13 00:30N 36°19' W 002°36'1111.8
2015-Jul-12 23:33N 36°18' W 002°49'11813.1
2015-Jul-12 14:34N 36°01' W 005°14'9 1.7
2015-Jul-12 09:18N 36°07' W 005°22'0 0.2
2015-Jul-12 08:33N 36°08' W 005°22'1 0.1
2015-Jul-12 04:12N 36°07' W 005°22'2 3.8
2015-Jul-12 03:33N 36°05' W 005°22'9 8.9
2015-Jul-12 02:33N 35°58' W 005°29'4313.3
2015-Jul-11 23:18N 35°48' W 006°21'1012.3
2015-Jul-11 22:28N 35°39' W 006°27'2711.9
2015-Jul-11 20:12N 35°15' W 006°42'811.9
2015-Jul-11 19:32N 35°08' W 006°47'2311.5
2015-Jul-11 17:33N 34°48' W 007°00'  

Dump ship's entire track history